Aviation Digital Data Service (ADDS)

Output produced by METARs form (2036 UTC 27 April 2017)
found at http://aviationweather.gov/adds/metars/
 
KFDY 271808Z 2718/2818 24016G26KT P6SM SCT025 BKN040 
     TEMPO 2720/2724 BKN025 
     FM280000 25012KT P6SM BKN025 
     FM281500 17007KT P6SM SCT030 BKN110